createdAt,value
2019-03-22T00:00:03.263Z,7.15
2019-03-22T00:02:32.963Z,7.19
2019-03-22T00:05:01.099Z,7.35
2019-03-22T00:07:27.856Z,7.20
2019-03-22T00:09:55.477Z,6.91
2019-03-22T00:12:24.083Z,7.03
2019-03-22T00:14:51.432Z,7.18
2019-03-22T00:17:18.212Z,7.29
2019-03-22T00:20:05.668Z,7.17
2019-03-22T00:22:34.243Z,7.18
2019-03-22T00:25:00.876Z,7.12
2019-03-22T00:27:28.007Z,6.99
2019-03-22T00:29:58.572Z,6.99
2019-03-22T00:32:25.188Z,7.08
2019-03-22T00:35:01.496Z,7.12
2019-03-22T00:37:46.896Z,7.05
2019-03-22T00:40:17.202Z,7.00
2019-03-22T00:42:45.103Z,7.10
2019-03-22T00:45:11.726Z,6.98
2019-03-22T00:47:38.824Z,7.03
2019-03-22T00:50:06.800Z,6.96
2019-03-22T00:52:36.551Z,6.86
2019-03-22T00:55:05.160Z,6.84
2019-03-22T00:57:33.594Z,6.56
2019-03-22T01:00:01.280Z,6.54
2019-03-22T01:02:30.799Z,6.48
2019-03-22T01:04:59.405Z,6.82
2019-03-22T01:07:26.259Z,6.84
2019-03-22T01:09:56.409Z,6.66
2019-03-22T01:12:27.665Z,6.67
2019-03-22T01:14:55.631Z,6.74
2019-03-22T01:17:23.390Z,6.57
2019-03-22T01:19:54.690Z,6.71
2019-03-22T01:22:22.523Z,6.62
2019-03-22T01:24:54.278Z,6.41
2019-03-22T01:27:23.187Z,6.20
2019-03-22T01:30:00.400Z,6.30
2019-03-22T01:32:29.089Z,6.18
2019-03-22T01:35:01.085Z,6.35
2019-03-22T01:37:32.418Z,6.57
2019-03-22T01:40:01.005Z,6.70
2019-03-22T01:42:28.837Z,6.75
2019-03-22T01:44:56.446Z,6.64
2019-03-22T01:47:23.272Z,6.66
2019-03-22T01:49:50.955Z,6.69
2019-03-22T01:52:22.034Z,6.40
2019-03-22T01:54:49.612Z,6.38
2019-03-22T01:57:33.932Z,6.32
2019-03-22T02:00:05.008Z,6.38
2019-03-22T02:02:31.958Z,6.33
2019-03-22T02:04:58.760Z,6.28
2019-03-22T02:07:26.942Z,6.21
2019-03-22T02:09:53.878Z,6.22
2019-03-22T02:12:20.578Z,6.21
2019-03-22T02:14:47.464Z,6.31
2019-03-22T02:17:14.852Z,6.27
2019-03-22T02:22:27.363Z,5.88
2019-03-22T02:24:54.059Z,5.94
2019-03-22T02:27:20.755Z,6.01
2019-03-22T02:29:49.269Z,6.24
2019-03-22T02:32:16.298Z,6.44
2019-03-22T02:34:42.984Z,6.50
2019-03-22T02:37:09.923Z,6.51
2019-03-22T02:39:36.831Z,6.42
2019-03-22T02:42:03.566Z,6.45
2019-03-22T02:44:30.318Z,6.27
2019-03-22T02:46:57.056Z,6.21
2019-03-22T02:49:23.907Z,5.93
2019-03-22T02:51:50.532Z,5.86
2019-03-22T02:54:17.173Z,5.83
2019-03-22T02:56:44.531Z,6.03
2019-03-22T02:59:11.146Z,6.17
2019-03-22T03:01:37.753Z,5.92
2019-03-22T03:04:04.677Z,5.82
2019-03-22T03:06:32.178Z,5.84
2019-03-22T03:08:59.133Z,5.86
2019-03-22T03:11:26.082Z,5.95
2019-03-22T03:13:53.165Z,5.95
2019-03-22T03:16:19.805Z,5.83
2019-03-22T03:18:46.451Z,5.89
2019-03-22T03:21:14.007Z,5.80
2019-03-22T03:23:40.904Z,5.81
2019-03-22T03:26:07.542Z,5.81
2019-03-22T03:28:37.085Z,5.81
2019-03-22T03:31:02.807Z,5.75
2019-03-22T03:33:29.683Z,5.90
2019-03-22T03:35:56.671Z,5.98
2019-03-22T03:38:23.527Z,5.82
2019-03-22T03:40:50.403Z,5.84
2019-03-22T03:43:17.158Z,5.85
2019-03-22T03:45:52.709Z,5.79
2019-03-22T03:48:19.645Z,5.69
2019-03-22T03:50:46.348Z,5.71
2019-03-22T03:53:13.196Z,5.64
2019-03-22T03:55:39.902Z,5.57
2019-03-22T03:58:06.578Z,5.63
2019-03-22T04:00:33.184Z,5.62
2019-03-22T04:02:59.999Z,5.61
2019-03-22T04:05:26.901Z,5.72
2019-03-22T04:07:53.516Z,5.44
2019-03-22T04:10:21.523Z,5.45
2019-03-22T04:12:49.332Z,5.48
2019-03-22T04:15:16.037Z,5.71
2019-03-22T04:26:04.426Z,5.60
2019-03-22T04:28:44.175Z,5.50
2019-03-22T04:31:16.777Z,5.39
2019-03-22T04:34:03.610Z,5.49
2019-03-22T04:36:32.478Z,5.64
2019-03-22T04:39:02.106Z,5.38
2019-03-22T04:41:31.983Z,5.41
2019-03-22T04:44:03.118Z,5.48
2019-03-22T04:46:31.799Z,5.61
2019-03-22T04:49:09.525Z,5.81
2019-03-22T04:51:37.391Z,5.79
2019-03-22T04:54:09.073Z,5.59
2019-03-22T04:56:36.942Z,5.47
2019-03-22T04:59:04.701Z,5.33
2019-03-22T05:01:31.509Z,5.33
2019-03-22T05:04:01.672Z,5.20
2019-03-22T05:06:28.514Z,5.15
2019-03-22T05:08:55.211Z,5.27
2019-03-22T05:11:22.104Z,5.48
2019-03-22T05:13:48.889Z,5.50
2019-03-22T05:16:15.579Z,5.67
2019-03-22T05:18:44.028Z,5.78
2019-03-22T05:21:10.762Z,5.46
2019-03-22T05:23:37.625Z,5.59
2019-03-22T05:26:05.212Z,5.75
2019-03-22T05:28:32.879Z,5.64
2019-03-22T05:30:59.481Z,5.38
2019-03-22T05:33:26.762Z,5.51
2019-03-22T05:35:54.676Z,5.53
2019-03-22T05:38:21.991Z,5.76
2019-03-22T05:40:48.672Z,5.86
2019-03-22T05:43:19.468Z,5.89
2019-03-22T05:45:47.135Z,6.05
2019-03-22T05:48:15.100Z,6.34
2019-03-22T05:50:53.834Z,6.42
2019-03-22T05:53:20.474Z,6.34
2019-03-22T05:55:47.378Z,6.34
2019-03-22T05:58:14.663Z,6.55
2019-03-22T06:00:42.845Z,6.72
2019-03-22T06:03:09.536Z,6.91
2019-03-22T06:05:37.601Z,7.10
2019-03-22T06:08:05.047Z,7.14
2019-03-22T06:10:31.948Z,7.24
2019-03-22T06:12:58.572Z,7.26
2019-03-22T06:15:26.005Z,7.53
2019-03-22T06:17:55.546Z,7.84
2019-03-22T06:20:22.494Z,7.88
2019-03-22T06:22:49.130Z,8.04
2019-03-22T06:25:16.215Z,8.26
2019-03-22T06:27:43.102Z,8.41
2019-03-22T06:30:10.165Z,8.63
2019-03-22T06:32:36.910Z,8.62
2019-03-22T06:35:03.784Z,8.61
2019-03-22T06:37:30.676Z,8.92
2019-03-22T06:39:57.713Z,9.29
2019-03-22T06:42:24.322Z,9.52
2019-03-22T06:44:51.019Z,9.92
2019-03-22T06:47:17.678Z,10.10
2019-03-22T06:49:44.305Z,9.96
2019-03-22T06:52:11.354Z,10.07
2019-03-22T06:54:38.380Z,10.43
2019-03-22T06:57:05.844Z,10.65
2019-03-22T06:59:32.864Z,10.81
2019-03-22T07:01:59.539Z,10.90
2019-03-22T07:04:26.164Z,11.00
2019-03-22T07:06:53.119Z,11.27
2019-03-22T07:09:20.165Z,11.44
2019-03-22T07:11:57.248Z,11.33
2019-03-22T07:17:13.174Z,11.91
2019-03-22T07:19:40.013Z,12.15
2019-03-22T07:27:40.401Z,12.59
2019-03-22T07:30:17.928Z,12.85
2019-03-22T07:32:37.300Z,13.05
2019-03-22T07:35:08.027Z,13.10
2019-03-22T07:37:35.630Z,13.34
2019-03-22T07:40:02.679Z,13.51
2019-03-22T07:42:29.351Z,13.47
2019-03-22T07:44:56.496Z,13.26
2019-03-22T07:47:25.363Z,13.61
2019-03-22T07:49:52.035Z,13.73
2019-03-22T07:55:05.522Z,14.03
2019-03-22T07:57:34.129Z,14.30
2019-03-22T08:00:05.183Z,14.38
2019-03-22T08:02:36.875Z,14.42
2019-03-22T08:05:03.487Z,14.76
2019-03-22T08:07:30.447Z,14.80
2019-03-22T08:09:58.432Z,15.11
2019-03-22T08:12:25.106Z,15.35
2019-03-22T08:17:41.456Z,15.12
2019-03-22T08:20:08.268Z,15.30
2019-03-22T08:22:35.170Z,15.72
2019-03-22T08:25:01.786Z,15.75
2019-03-22T08:27:28.725Z,16.18
2019-03-22T08:29:55.521Z,16.18
2019-03-22T08:32:23.098Z,16.40
2019-03-22T08:34:49.843Z,16.66
2019-03-22T08:37:18.111Z,16.80
2019-03-22T08:39:47.727Z,16.82
2019-03-22T08:42:14.177Z,16.92
2019-03-22T08:44:40.869Z,17.20
2019-03-22T08:47:07.831Z,17.19
2019-03-22T08:49:34.690Z,17.18
2019-03-22T08:52:01.434Z,17.32
2019-03-22T08:54:28.126Z,17.67
2019-03-22T08:56:55.049Z,17.73
2019-03-22T08:59:24.688Z,17.65
2019-03-22T09:01:52.310Z,17.90
2019-03-22T09:04:19.205Z,18.09
2019-03-22T09:06:47.121Z,18.34
2019-03-22T09:09:13.832Z,18.17
2019-03-22T09:11:40.685Z,18.27
2019-03-22T09:14:07.379Z,18.19
2019-03-22T09:16:34.088Z,18.35
2019-03-22T09:19:02.496Z,18.52
2019-03-22T09:21:29.119Z,18.57
2019-03-22T09:23:56.704Z,18.69
2019-03-22T09:26:23.623Z,18.73
2019-03-22T09:28:50.469Z,19.02
2019-03-22T09:31:17.081Z,19.06
2019-03-22T09:33:43.676Z,19.02
2019-03-22T09:36:10.287Z,19.15
2019-03-22T09:38:38.000Z,19.25
2019-03-22T09:41:04.861Z,19.41
2019-03-22T09:43:31.665Z,19.56
2019-03-22T09:46:00.699Z,19.72
2019-03-22T09:48:27.336Z,19.83
2019-03-22T09:50:54.032Z,19.81
2019-03-22T09:53:21.008Z,19.98
2019-03-22T09:55:47.991Z,20.24
2019-03-22T09:58:14.591Z,20.40
2019-03-22T10:00:41.169Z,20.56
2019-03-22T10:03:07.782Z,20.42
2019-03-22T10:05:34.449Z,20.54
2019-03-22T10:08:01.361Z,20.48
2019-03-22T10:10:28.523Z,20.69
2019-03-22T10:12:55.115Z,20.80
2019-03-22T10:15:22.067Z,20.92
2019-03-22T10:20:36.719Z,21.16
2019-03-22T10:23:22.306Z,21.34
2019-03-22T10:25:53.655Z,21.51
2019-03-22T10:28:22.634Z,21.80
2019-03-22T10:30:54.112Z,21.90
2019-03-22T10:33:25.609Z,21.38
2019-03-22T10:35:52.779Z,21.20
2019-03-22T10:38:30.989Z,21.58
2019-03-22T10:40:52.419Z,21.82
2019-03-22T10:43:19.404Z,21.86
2019-03-22T10:45:46.492Z,21.56
2019-03-22T10:48:15.423Z,21.77
2019-03-22T10:50:46.721Z,22.01
2019-03-22T10:53:17.470Z,21.77
2019-03-22T10:55:46.894Z,21.16
2019-03-22T10:58:21.369Z,21.79
2019-03-22T11:00:47.847Z,22.28
2019-03-22T11:03:14.290Z,22.86
2019-03-22T11:05:41.251Z,23.23
2019-03-22T11:08:08.149Z,23.41
2019-03-22T11:10:35.083Z,23.43
2019-03-22T11:13:01.833Z,23.62
2019-03-22T11:15:28.650Z,23.63
2019-03-22T11:17:55.569Z,23.62
2019-03-22T11:20:22.507Z,23.82
2019-03-22T11:22:49.106Z,24.06
2019-03-22T11:25:15.892Z,23.60
2019-03-22T11:27:42.540Z,23.47
2019-03-22T11:30:09.107Z,23.85
2019-03-22T11:32:35.951Z,24.36
2019-03-22T11:35:03.023Z,24.38
2019-03-22T11:37:29.622Z,24.22
2019-03-22T11:39:56.380Z,24.29
2019-03-22T11:42:24.343Z,24.23
2019-03-22T11:44:50.965Z,23.91
2019-03-22T11:47:17.612Z,23.96
2019-03-22T11:49:44.538Z,23.97
2019-03-22T11:52:11.178Z,24.39
2019-03-22T11:54:37.793Z,24.43
2019-03-22T11:57:04.674Z,24.16
2019-03-22T11:59:32.951Z,24.10
2019-03-22T12:01:59.873Z,24.29
2019-03-22T12:04:26.777Z,24.52
2019-03-22T12:06:53.958Z,24.47
2019-03-22T12:09:22.955Z,24.86
2019-03-22T12:11:50.296Z,24.60
2019-03-22T12:14:17.206Z,24.54
2019-03-22T12:16:43.876Z,24.89
2019-03-22T12:19:14.579Z,24.98
2019-03-22T12:21:41.189Z,24.96
2019-03-22T12:24:08.152Z,25.01
2019-03-22T12:26:35.419Z,25.16
2019-03-22T12:29:02.569Z,25.30
2019-03-22T12:31:29.795Z,25.22
2019-03-22T12:33:56.965Z,25.06
2019-03-22T12:36:25.650Z,25.37
2019-03-22T12:38:52.542Z,25.63
2019-03-22T12:41:19.744Z,25.68
2019-03-22T12:43:46.940Z,25.65
2019-03-22T12:46:13.890Z,25.31
2019-03-22T12:48:41.136Z,25.43
2019-03-22T12:51:08.058Z,25.60
2019-03-22T12:53:34.945Z,25.79
2019-03-22T12:56:02.264Z,26.04
2019-03-22T12:58:29.187Z,25.91
2019-03-22T13:00:56.381Z,25.48
2019-03-22T13:03:24.400Z,25.72
2019-03-22T13:05:51.363Z,25.89
2019-03-22T13:08:18.282Z,25.92
2019-03-22T13:10:45.159Z,25.87
2019-03-22T13:13:12.094Z,25.89
2019-03-22T13:15:38.702Z,25.48
2019-03-22T13:18:05.632Z,25.93
2019-03-22T13:20:32.550Z,26.39
2019-03-22T13:22:59.423Z,25.95
2019-03-22T13:25:26.674Z,25.94
2019-03-22T13:27:53.504Z,26.23
2019-03-22T13:30:20.428Z,25.79
2019-03-22T13:32:52.168Z,25.48
2019-03-22T13:35:16.021Z,25.27
2019-03-22T13:37:43.782Z,25.47
2019-03-22T13:40:10.703Z,25.69
2019-03-22T13:42:37.853Z,25.91
2019-03-22T13:45:19.730Z,26.10
2019-03-22T13:47:47.187Z,26.22
2019-03-22T13:50:14.143Z,26.33
2019-03-22T13:52:41.027Z,26.50
2019-03-22T13:55:08.320Z,26.38
2019-03-22T13:57:35.189Z,25.56
2019-03-22T14:00:01.903Z,25.72
2019-03-22T14:02:30.159Z,25.73
2019-03-22T14:04:56.765Z,25.92
2019-03-22T14:07:23.630Z,26.13
2019-03-22T14:09:52.045Z,26.50
2019-03-22T14:12:18.996Z,26.89
2019-03-22T14:14:47.154Z,26.98
2019-03-22T14:17:14.021Z,26.77
2019-03-22T14:19:40.913Z,26.46
2019-03-22T14:22:07.805Z,26.10
2019-03-22T14:24:35.004Z,25.47
2019-03-22T14:27:02.027Z,25.28
2019-03-22T14:29:28.609Z,25.58
2019-03-22T14:31:55.857Z,25.48
2019-03-22T14:34:23.089Z,25.08
2019-03-22T14:36:49.978Z,24.97
2019-03-22T14:39:16.900Z,25.17
2019-03-22T14:41:43.771Z,25.56
2019-03-22T14:44:10.739Z,25.60
2019-03-22T14:46:37.674Z,25.64
2019-03-22T14:49:04.709Z,25.43
2019-03-22T14:51:31.466Z,25.48
2019-03-22T14:53:58.771Z,25.17
2019-03-22T14:56:25.773Z,24.97
2019-03-22T14:58:52.836Z,25.11
2019-03-22T15:01:20.032Z,25.07
2019-03-22T15:03:46.802Z,25.05
2019-03-22T15:06:13.708Z,24.98
2019-03-22T15:08:40.821Z,24.99
2019-03-22T15:11:07.809Z,24.92
2019-03-22T15:13:34.671Z,24.71
2019-03-22T15:16:01.634Z,24.36
2019-03-22T15:18:28.498Z,24.33
2019-03-22T15:20:55.832Z,24.57
2019-03-22T15:23:23.171Z,24.63
2019-03-22T15:25:50.513Z,24.54
2019-03-22T15:28:17.108Z,24.61
2019-03-22T15:30:44.014Z,24.77
2019-03-22T15:33:10.801Z,24.97
2019-03-22T15:35:37.762Z,24.76
2019-03-22T15:38:04.759Z,24.74
2019-03-22T15:40:31.657Z,24.77
2019-03-22T15:42:58.500Z,24.72
2019-03-22T15:45:25.828Z,24.76
2019-03-22T15:47:52.966Z,24.58
2019-03-22T15:50:19.897Z,24.32
2019-03-22T15:52:46.849Z,24.33
2019-03-22T15:55:13.837Z,24.20
2019-03-22T15:57:40.609Z,24.20
2019-03-22T16:00:07.561Z,24.26
2019-03-22T16:02:34.548Z,23.96
2019-03-22T16:05:07.898Z,23.95
2019-03-22T16:07:34.820Z,23.95
2019-03-22T16:10:01.652Z,23.97
2019-03-22T16:12:28.566Z,23.87
2019-03-22T16:14:55.193Z,23.79
2019-03-22T16:17:22.159Z,23.69
2019-03-22T16:19:50.088Z,23.65
2019-03-22T16:22:16.990Z,23.48
2019-03-22T16:24:44.917Z,23.39
2019-03-22T16:27:11.788Z,23.38
2019-03-22T16:29:38.683Z,23.23
2019-03-22T16:32:07.074Z,23.18
2019-03-22T16:34:35.278Z,22.91
2019-03-22T16:37:03.128Z,22.82
2019-03-22T16:39:31.374Z,22.68
2019-03-22T16:41:58.261Z,22.61
2019-03-22T16:44:25.419Z,22.44
2019-03-22T16:46:53.292Z,22.49
2019-03-22T16:49:21.197Z,22.31
2019-03-22T16:51:48.026Z,22.13
2019-03-22T16:54:15.660Z,21.89
2019-03-22T16:56:42.412Z,21.65
2019-03-22T16:59:09.484Z,21.39
2019-03-22T17:01:37.127Z,21.28
2019-03-22T17:04:04.964Z,21.02
2019-03-22T17:06:32.206Z,20.65
2019-03-22T17:09:00.470Z,20.39
2019-03-22T17:14:12.143Z,20.09
2019-03-22T17:16:38.871Z,20.01
2019-03-22T17:19:05.585Z,19.92
2019-03-22T17:21:32.501Z,19.73
2019-03-22T17:24:00.395Z,19.69
2019-03-22T17:26:31.316Z,19.63
2019-03-22T17:29:00.066Z,19.39
2019-03-22T17:31:26.926Z,19.18
2019-03-22T17:33:53.767Z,18.98
2019-03-22T17:36:20.432Z,18.85
2019-03-22T17:38:47.137Z,18.75
2019-03-22T17:41:14.361Z,18.75
2019-03-22T17:43:41.091Z,18.66
2019-03-22T17:46:08.793Z,18.61
2019-03-22T17:48:35.454Z,18.44
2019-03-22T17:51:02.309Z,18.33
2019-03-22T17:53:29.261Z,18.10
2019-03-22T17:55:55.882Z,17.87
2019-03-22T17:58:22.703Z,17.69
2019-03-22T18:00:49.360Z,17.60
2019-03-22T18:03:16.955Z,17.49
2019-03-22T18:05:44.841Z,17.46
2019-03-22T18:08:11.438Z,17.46
2019-03-22T18:13:31.727Z,17.46
2019-03-22T18:15:58.598Z,17.43
2019-03-22T18:18:25.174Z,17.11
2019-03-22T18:20:53.772Z,16.89
2019-03-22T18:23:24.600Z,16.82
2019-03-22T18:26:04.697Z,16.81
2019-03-22T18:28:54.288Z,16.77
2019-03-22T18:31:16.636Z,16.47
2019-03-22T18:33:52.022Z,16.44
2019-03-22T18:36:14.675Z,16.57
2019-03-22T18:39:06.942Z,16.32
2019-03-22T18:41:12.149Z,16.19
2019-03-22T18:43:47.805Z,15.89
2019-03-22T18:46:12.177Z,15.55
2019-03-22T18:48:40.895Z,15.39
2019-03-22T18:51:09.352Z,15.22
2019-03-22T18:53:38.970Z,15.34
2019-03-22T18:56:19.996Z,15.43
2019-03-22T18:58:47.449Z,15.44
2019-03-22T19:01:19.719Z,15.49
2019-03-22T19:06:24.514Z,15.54
2019-03-22T19:08:50.392Z,15.44
2019-03-22T19:11:16.949Z,15.32
2019-03-22T19:13:45.651Z,15.30
2019-03-22T19:16:14.543Z,15.11
2019-03-22T19:18:49.287Z,15.07
2019-03-22T19:21:21.968Z,15.00
2019-03-22T19:23:50.583Z,15.01
2019-03-22T19:26:21.160Z,14.95
2019-03-22T19:28:52.594Z,14.92
2019-03-22T19:31:20.229Z,14.90
2019-03-22T19:33:49.132Z,14.89
2019-03-22T19:36:18.826Z,14.80
2019-03-22T19:38:48.606Z,14.68
2019-03-22T19:41:18.623Z,14.48
2019-03-22T19:43:45.476Z,14.21
2019-03-22T19:49:28.556Z,14.29
2019-03-22T19:51:58.586Z,14.27
2019-03-22T19:54:30.355Z,14.20
2019-03-22T19:57:01.546Z,14.17
2019-03-22T19:59:32.243Z,14.13
2019-03-22T20:02:01.009Z,13.99
2019-03-22T20:04:28.570Z,13.89
2019-03-22T20:06:55.448Z,13.86
2019-03-22T20:09:24.065Z,13.82
2019-03-22T20:11:52.776Z,13.66
2019-03-22T20:14:19.375Z,13.57
2019-03-22T20:16:46.095Z,13.62
2019-03-22T20:21:58.274Z,13.62
2019-03-22T20:24:25.944Z,13.52
2019-03-22T20:26:59.785Z,13.56
2019-03-22T20:29:27.451Z,13.55
2019-03-22T20:31:54.306Z,13.42
2019-03-22T20:34:21.205Z,13.17
2019-03-22T20:36:47.925Z,13.23
2019-03-22T20:39:14.615Z,13.10
2019-03-22T20:41:41.453Z,13.05
2019-03-22T20:44:08.903Z,13.12
2019-03-22T20:46:36.147Z,13.09
2019-03-22T20:49:05.068Z,12.93
2019-03-22T20:51:31.224Z,13.04
2019-03-22T20:53:57.861Z,13.05
2019-03-22T20:56:24.820Z,13.00
2019-03-22T20:58:51.833Z,12.91
2019-03-22T21:01:18.454Z,13.04
2019-03-22T21:03:45.189Z,13.09
2019-03-22T21:06:12.199Z,12.99
2019-03-22T21:08:38.926Z,12.81
2019-03-22T21:11:05.815Z,12.80
2019-03-22T21:13:32.502Z,12.71
2019-03-22T21:15:59.498Z,12.53
2019-03-22T21:18:26.081Z,12.40
2019-03-22T21:20:52.689Z,12.36
2019-03-22T21:23:19.658Z,12.34
2019-03-22T21:25:46.478Z,12.27
2019-03-22T21:28:13.633Z,12.12
2019-03-22T21:30:40.252Z,12.06
2019-03-22T21:33:08.244Z,12.07
2019-03-22T21:35:37.469Z,12.08
2019-03-22T21:38:10.792Z,12.10
2019-03-22T21:40:31.867Z,12.14
2019-03-22T21:43:00.349Z,12.15
2019-03-22T21:45:26.910Z,12.26
2019-03-22T21:47:53.787Z,12.31
2019-03-22T21:50:20.482Z,12.22
2019-03-22T21:52:47.097Z,12.09
2019-03-22T21:55:13.754Z,11.96
2019-03-22T21:57:40.555Z,11.67
2019-03-22T22:00:07.156Z,11.68
2019-03-22T22:02:34.788Z,11.68
2019-03-22T22:05:01.730Z,11.60
2019-03-22T22:07:28.612Z,11.63
2019-03-22T22:09:55.197Z,11.74
2019-03-22T22:12:21.839Z,11.71
2019-03-22T22:14:49.737Z,11.68
2019-03-22T22:17:16.612Z,11.45
2019-03-22T22:19:46.927Z,11.46
2019-03-22T22:22:18.016Z,11.34
2019-03-22T22:24:45.616Z,11.42
2019-03-22T22:27:18.029Z,11.52
2019-03-22T22:29:47.560Z,11.42
2019-03-22T22:32:25.833Z,11.41
2019-03-22T22:34:55.632Z,11.32
2019-03-22T22:40:14.749Z,11.20
2019-03-22T22:42:42.378Z,11.03
2019-03-22T22:45:10.633Z,10.89
2019-03-22T22:47:39.585Z,10.81
2019-03-22T22:50:12.343Z,10.83
2019-03-22T22:52:41.740Z,10.84
2019-03-22T22:55:21.031Z,10.72
2019-03-22T22:57:49.149Z,10.84
2019-03-22T23:00:16.321Z,11.01
2019-03-22T23:02:46.909Z,10.79
2019-03-22T23:05:18.576Z,10.67
2019-03-22T23:07:47.549Z,10.70
2019-03-22T23:10:20.980Z,10.69
2019-03-22T23:12:48.750Z,10.71
2019-03-22T23:15:18.065Z,10.59
2019-03-22T23:17:46.937Z,10.57
2019-03-22T23:20:16.961Z,10.58
2019-03-22T23:22:47.604Z,10.84
2019-03-22T23:25:37.030Z,10.80
2019-03-22T23:27:45.543Z,10.59
2019-03-22T23:30:16.766Z,10.55
2019-03-22T23:35:30.610Z,10.34
2019-03-22T23:37:58.018Z,10.19
2019-03-22T23:40:28.950Z,10.17
2019-03-22T23:42:57.143Z,10.14
2019-03-22T23:45:24.503Z,10.15
2019-03-22T23:47:52.947Z,10.22
2019-03-22T23:50:20.893Z,10.17
2019-03-22T23:52:47.831Z,10.14
2019-03-22T23:55:15.502Z,10.14
2019-03-22T23:57:44.277Z,9.98
